Time;durP1;ratioP1;P1;durP2;ratioP2;P2;SDS_P1;SDS_P2;PMS_P1;PMS_P2;Temp;Humidity;BMP_temperature;BMP_pressure;BME280_temperature;BME280_humidity;BME280_pressure;Samples;Min_cycle;Max_cycle;Signal;HPM_P1;HPM_P2
2021/09/17 00:00:29;;;;;;;10.97;8.20;;;13.40;99.90;;;;;;5051893;28;20458;-59
2021/09/17 00:02:55;;;;;;;8.23;7.53;;;13.40;99.90;;;;;;5051514;28;20543;-60
2021/09/17 00:05:22;;;;;;;10.97;9.47;;;13.50;99.90;;;;;;5051735;28;20468;-61
2021/09/17 00:07:49;;;;;;;12.50;7.67;;;13.60;99.90;;;;;;5051775;28;20448;-61
2021/09/17 00:10:16;;;;;;;12.10;8.00;;;13.70;99.90;;;;;;5063594;28;20447;-60
2021/09/17 00:12:43;;;;;;;8.23;7.50;;;13.70;99.90;;;;;;5071153;28;20450;-60
2021/09/17 00:15:12;;;;;;;9.60;6.70;;;13.80;99.90;;;;;;5071492;28;20478;-58
2021/09/17 00:17:39;;;;;;;8.37;6.63;;;13.90;99.90;;;;;;5071637;28;20447;-61
2021/09/17 00:20:08;;;;;;;6.00;5.47;;;14.00;99.90;;;;;;5071565;28;20451;-61
2021/09/17 00:22:35;;;;;;;7.37;6.67;;;14.10;99.90;;;;;;5056990;28;20479;-58
2021/09/17 00:25:02;;;;;;;8.60;6.30;;;14.10;99.90;;;;;;5051411;28;20472;-59
2021/09/17 00:27:29;;;;;;;6.90;5.83;;;14.20;99.90;;;;;;5051515;28;20448;-60
2021/09/17 00:29:55;;;;;;;7.03;6.20;;;14.20;99.90;;;;;;5051403;28;20447;-58
2021/09/17 00:32:24;;;;;;;6.43;5.70;;;14.20;99.90;;;;;;5051272;28;20519;-60
2021/09/17 00:34:50;;;;;;;9.37;6.03;;;14.30;99.90;;;;;;5064965;28;20848;-60
2021/09/17 00:37:17;;;;;;;8.70;7.10;;;14.30;99.90;;;;;;5071443;28;20509;-60
2021/09/17 00:39:44;;;;;;;7.63;6.93;;;14.40;99.90;;;;;;5071446;28;20450;-58
2021/09/17 00:42:10;;;;;;;9.37;7.93;;;14.40;99.90;;;;;;5071072;28;20477;-57
2021/09/17 00:44:37;;;;;;;6.63;5.77;;;14.40;99.90;;;;;;5071205;28;20465;-59
2021/09/17 00:47:04;;;;;;;7.10;6.50;;;14.40;99.90;;;;;;5056112;28;20459;-59
2021/09/17 00:49:32;;;;;;;5.80;5.30;;;14.40;99.90;;;;;;5051391;28;20452;-60
2021/09/17 00:51:59;;;;;;;6.27;5.67;;;14.50;99.90;;;;;;5051001;28;20925;-59
2021/09/17 00:54:28;;;;;;;7.47;6.20;;;14.50;99.90;;;;;;5057765;28;20450;-60
2021/09/17 00:56:55;;;;;;;7.07;5.80;;;14.50;99.90;;;;;;5071245;28;20492;-57
2021/09/17 00:59:22;;;;;;;7.53;6.93;;;14.50;99.90;;;;;;5072138;28;20945;-60
2021/09/17 01:01:48;;;;;;;7.63;6.07;;;14.50;99.90;;;;;;5074845;28;20895;-59
2021/09/17 01:04:15;;;;;;;8.57;6.80;;;14.50;99.90;;;;;;5069805;28;20451;-59
2021/09/17 01:06:43;;;;;;;13.60;8.17;;;14.60;99.90;;;;;;5070734;28;20463;-60
2021/09/17 01:09:11;;;;;;;17.20;7.63;;;14.60;99.90;;;;;;5075033;28;20531;-60
2021/09/17 01:11:38;;;;;;;12.57;8.20;;;14.60;99.90;;;;;;5074539;28;20439;-59
2021/09/17 01:14:05;;;;;;;10.67;8.90;;;14.60;99.90;;;;;;5074933;28;20450;-60
2021/09/17 01:16:32;;;;;;;9.13;8.33;;;14.60;99.90;;;;;;5061241;28;20480;-63
2021/09/17 01:18:59;;;;;;;10.87;9.40;;;14.60;99.90;;;;;;5059131;28;20443;-62
2021/09/17 01:21:27;;;;;;;8.70;7.43;;;14.70;99.90;;;;;;5058834;28;21012;-63
2021/09/17 01:23:54;;;;;;;9.40;8.50;;;14.70;99.90;;;;;;5059782;28;20937;-62
2021/09/17 01:26:21;;;;;;;12.83;10.13;;;14.70;99.90;;;;;;5060337;28;20471;-63
2021/09/17 01:28:48;;;;;;;10.43;9.37;;;14.70;99.90;;;;;;5074627;28;20447;-62
2021/09/17 01:31:15;;;;;;;11.70;10.03;;;14.80;99.90;;;;;;5078571;28;20441;-63
2021/09/17 01:33:41;;;;;;;10.23;9.20;;;14.70;99.90;;;;;;5079373;28;20439;-63
2021/09/17 01:36:10;;;;;;;11.50;9.40;;;14.70;99.90;;;;;;5078495;28;20473;-63
2021/09/17 01:38:40;;;;;;;11.70;10.20;;;14.80;99.90;;;;;;5078499;28;20443;-62
2021/09/17 01:41:07;;;;;;;11.83;10.73;;;14.80;99.90;;;;;;5061966;28;20953;-63
2021/09/17 01:43:34;;;;;;;14.40;11.20;;;14.80;99.90;;;;;;5057352;28;20442;-61
2021/09/17 01:46:01;;;;;;;11.17;10.07;;;14.80;99.90;;;;;;5058238;28;20460;-63
2021/09/17 01:48:28;;;;;;;11.87;10.67;;;14.90;99.90;;;;;;5057504;28;20444;-62
2021/09/17 01:50:55;;;;;;;12.47;11.10;;;14.90;99.90;;;;;;5057117;28;20443;-62
2021/09/17 01:53:22;;;;;;;15.27;13.53;;;14.80;99.90;;;;;;5073624;28;20451;-62
2021/09/17 01:55:50;;;;;;;15.93;14.23;;;14.80;99.90;;;;;;5078446;28;20462;-63
2021/09/17 01:58:17;;;;;;;17.13;13.13;;;14.80;99.90;;;;;;5078565;28;20792;-62
2021/09/17 02:00:44;;;;;;;15.10;13.50;;;14.90;99.90;;;;;;5078418;28;20447;-62
2021/09/17 02:03:10;;;;;;;15.40;13.80;;;14.90;99.90;;;;;;5076111;28;20479;-62
2021/09/17 02:05:37;;;;;;;13.93;12.33;;;14.90;99.90;;;;;;5076309;28;20497;-62
2021/09/17 02:08:04;;;;;;;15.40;13.80;;;14.90;99.90;;;;;;5071515;28;20443;-64
2021/09/17 02:10:31;;;;;;;19.07;17.10;;;15.00;99.90;;;;;;5062067;28;20451;-61
2021/09/17 02:12:59;;;;;;;18.37;16.00;;;14.90;99.90;;;;;;5057414;28;20771;-63
2021/09/17 02:15:26;;;;;;;21.10;17.23;;;14.90;99.90;;;;;;5056020;28;20483;-63
2021/09/17 02:17:53;;;;;;;19.43;17.37;;;14.90;99.90;;;;;;5056576;28;20448;-63
2021/09/17 02:20:20;;;;;;;20.63;16.33;;;14.90;99.90;;;;;;5055865;28;20448;-62
2021/09/17 02:22:47;;;;;;;19.83;16.10;;;14.90;99.90;;;;;;5056181;28;20480;-63
2021/09/17 02:25:14;;;;;;;17.87;16.00;;;14.90;99.90;;;;;;5056487;28;20471;-62
2021/09/17 02:27:41;;;;;;;19.30;17.23;;;14.90;99.90;;;;;;5061800;28;20906;-63
2021/09/17 02:30:11;;;;;;;24.27;19.77;;;14.90;99.90;;;;;;5076358;28;20936;-62
2021/09/17 02:32:39;;;;;;;18.77;16.93;;;14.90;99.90;;;;;;5076315;28;20439;-62
2021/09/17 02:35:07;;;;;;;23.53;19.60;;;14.90;99.90;;;;;;5075987;28;20462;-61
2021/09/17 02:37:34;;;;;;;20.50;18.40;;;14.90;99.90;;;;;;5076413;28;20937;-62
2021/09/17 02:40:01;;;;;;;20.77;17.60;;;14.90;99.90;;;;;;5065524;28;20452;-63
2021/09/17 02:42:28;;;;;;;22.37;20.10;;;14.90;99.90;;;;;;5055921;28;20503;-63
2021/09/17 02:44:54;;;;;;;21.10;18.30;;;15.00;99.90;;;;;;5055298;28;20452;-63
2021/09/17 02:47:22;;;;;;;23.03;19.43;;;15.00;99.90;;;;;;5055332;28;20440;-63
2021/09/17 02:49:49;;;;;;;25.50;21.50;;;15.00;99.90;;;;;;5055284;28;20441;-64
2021/09/17 02:52:16;;;;;;;30.47;23.37;;;15.00;99.90;;;;;;5065361;28;20447;-63
2021/09/17 02:54:43;;;;;;;22.23;19.90;;;15.00;99.90;;;;;;5075142;28;20447;-63
2021/09/17 02:57:09;;;;;;;23.00;20.70;;;15.00;99.90;;;;;;5076033;28;20443;-64
2021/09/17 02:59:36;;;;;;;26.10;21.20;;;15.00;99.90;;;;;;5075858;28;20451;-63
2021/09/17 03:02:03;;;;;;;25.57;22.93;;;15.00;99.90;;;;;;5075674;28;20478;-62
2021/09/17 03:04:32;;;;;;;22.83;18.90;;;15.10;99.90;;;;;;5060233;28;20455;-64
2021/09/17 03:06:59;;;;;;;23.60;20.63;;;15.00;99.90;;;;;;5055969;28;20440;-63
2021/09/17 03:09:25;;;;;;;23.53;20.00;;;15.10;99.90;;;;;;5055421;28;20816;-64
2021/09/17 03:11:53;;;;;;;25.90;23.20;;;15.10;99.90;;;;;;5064208;28;20444;-63
2021/09/17 03:14:20;;;;;;;28.43;25.07;;;15.00;99.90;;;;;;5074348;28;20447;-62
2021/09/17 03:16:46;;;;;;;32.47;26.60;;;15.10;99.90;;;;;;5074265;28;20471;-64
2021/09/17 03:19:13;;;;;;;28.40;21.87;;;15.00;99.90;;;;;;5073906;28;20512;-64
2021/09/17 03:21:41;;;;;;;31.83;26.33;;;15.10;99.90;;;;;;5064460;28;20448;-64
2021/09/17 03:24:08;;;;;;;28.60;24.50;;;15.10;99.90;;;;;;5053446;28;20798;-64
2021/09/17 03:26:35;;;;;;;32.70;24.20;;;15.10;99.90;;;;;;5053977;28;20467;-64
2021/09/17 03:29:02;;;;;;;29.30;22.47;;;15.10;99.90;;;;;;5054408;28;20444;-64
2021/09/17 03:31:29;;;;;;;34.43;29.10;;;15.10;99.90;;;;;;5055040;28;20448;-63
2021/09/17 03:33:58;;;;;;;35.70;28.17;;;15.10;99.90;;;;;;5063819;28;20431;-63
2021/09/17 03:36:25;;;;;;;35.60;30.03;;;15.10;99.90;;;;;;5075210;28;20459;-62
2021/09/17 03:38:53;;;;;;;32.10;27.10;;;15.10;99.90;;;;;;5074730;28;20443;-63
2021/09/17 03:41:20;;;;;;;33.17;26.77;;;15.10;99.90;;;;;;5073669;28;20443;-63
2021/09/17 03:43:47;;;;;;;41.10;34.73;;;15.00;99.90;;;;;;5073728;28;20481;-63
2021/09/17 03:46:14;;;;;;;35.60;30.83;;;15.10;99.90;;;;;;5060927;28;20467;-63
2021/09/17 03:48:42;;;;;;;40.20;28.93;;;15.10;99.90;;;;;;5053381;28;20956;-63
2021/09/17 03:51:08;;;;;;;33.73;30.10;;;15.10;99.90;;;;;;5053361;28;20447;-64
2021/09/17 03:53:35;;;;;;;37.27;31.73;;;15.10;99.90;;;;;;5053627;28;20447;-64
2021/09/17 03:56:04;;;;;;;36.00;27.87;;;15.10;99.90;;;;;;5053645;28;20464;-64
2021/09/17 03:58:31;;;;;;;34.27;28.60;;;15.10;99.90;;;;;;5067598;28;20447;-64
2021/09/17 04:00:57;;;;;;;34.03;29.60;;;15.10;99.90;;;;;;5073256;28;20454;-63
2021/09/17 04:03:24;;;;;;;33.87;28.33;;;15.10;99.90;;;;;;5072752;28;20486;-63
2021/09/17 04:05:51;;;;;;;35.57;31.77;;;15.10;99.90;;;;;;5066783;28;20978;-64
2021/09/17 04:08:17;;;;;;;34.50;29.57;;;15.10;99.90;;;;;;5053064;28;20451;-64
2021/09/17 04:10:44;;;;;;;29.50;26.30;;;15.20;99.90;;;;;;5053123;28;20440;-62
2021/09/17 04:13:12;;;;;;;38.20;27.83;;;15.20;99.90;;;;;;5053147;28;20451;-62
2021/09/17 04:15:39;;;;;;;37.77;32.10;;;15.10;99.90;;;;;;5056982;28;20474;-63
2021/09/17 04:18:05;;;;;;;38.43;33.63;;;15.10;99.90;;;;;;5072862;28;20438;-64
2021/09/17 04:20:32;;;;;;;37.03;30.93;;;15.20;99.90;;;;;;5072010;28;20929;-62
2021/09/17 04:22:59;;;;;;;31.93;28.00;;;15.20;99.90;;;;;;5072125;28;20483;-63
2021/09/17 04:25:26;;;;;;;33.70;26.50;;;15.20;99.90;;;;;;5072687;28;20530;-64
2021/09/17 04:27:53;;;;;;;36.47;28.70;;;15.30;99.90;;;;;;5071079;28;20443;-64
2021/09/17 04:30:21;;;;;;;30.90;26.67;;;15.30;99.90;;;;;;5052570;28;20863;-64
2021/09/17 04:32:48;;;;;;;34.50;27.57;;;15.30;99.90;;;;;;5052325;28;20439;-64
2021/09/17 04:35:15;;;;;;;39.43;27.70;;;15.30;99.90;;;;;;5052810;28;20452;-62
2021/09/17 04:37:44;;;;;;;33.90;27.60;;;15.30;99.90;;;;;;5052719;28;20456;-64
2021/09/17 04:40:12;;;;;;;33.33;27.03;;;15.30;99.90;;;;;;5061207;28;20447;-64
2021/09/17 04:42:39;;;;;;;36.40;28.43;;;15.30;99.90;;;;;;5072606;28;20481;-61
2021/09/17 04:45:07;;;;;;;38.83;31.27;;;15.30;99.90;;;;;;5073265;28;20478;-64
2021/09/17 04:47:36;;;;;;;36.53;29.03;;;15.30;99.90;;;;;;5072994;28;20439;-63
2021/09/17 04:50:03;;;;;;;33.00;28.43;;;15.30;99.90;;;;;;5073559;28;20454;-63
2021/09/17 04:52:30;;;;;;;35.73;27.67;;;15.30;99.90;;;;;;5059260;28;20483;-63
2021/09/17 04:54:59;;;;;;;36.53;26.57;;;15.30;99.90;;;;;;5052176;28;20472;-64
2021/09/17 04:57:25;;;;;;;33.93;28.60;;;15.40;99.90;;;;;;5051473;28;20456;-63
2021/09/17 04:59:52;;;;;;;40.83;30.63;;;15.30;99.90;;;;;;5051540;28;20451;-62
2021/09/17 05:02:19;;;;;;;34.13;28.20;;;15.30;99.90;;;;;;5051091;28;20824;-64
2021/09/17 05:04:47;;;;;;;35.53;28.10;;;15.40;99.90;;;;;;5051216;28;20805;-64
2021/09/17 05:07:14;;;;;;;36.63;27.10;;;15.40;99.90;;;;;;5051390;28;20467;-64
2021/09/17 05:09:41;;;;;;;32.40;26.50;;;15.40;99.90;;;;;;5051441;28;20444;-62
2021/09/17 05:12:08;;;;;;;29.93;26.80;;;15.40;99.90;;;;;;5051055;28;20448;-63
2021/09/17 05:14:35;;;;;;;34.83;27.27;;;15.40;99.90;;;;;;5051250;28;20440;-63
2021/09/17 05:17:02;;;;;;;38.93;28.40;;;15.40;99.90;;;;;;5051428;28;20444;-63
2021/09/17 05:19:28;;;;;;;34.27;29.27;;;15.50;99.90;;;;;;5051242;28;20440;-63
2021/09/17 05:21:57;;;;;;;35.87;28.27;;;15.50;99.90;;;;;;5050876;28;20439;-63
2021/09/17 05:24:24;;;;;;;33.77;27.37;;;15.50;99.90;;;;;;5051230;28;20482;-63
2021/09/17 05:26:51;;;;;;;29.17;26.07;;;15.50;99.90;;;;;;5051300;28;20464;-64
2021/09/17 05:29:18;;;;;;;34.47;27.27;;;15.50;99.90;;;;;;5051368;28;20440;-63
2021/09/17 05:31:45;;;;;;;33.17;25.40;;;15.50;99.90;;;;;;5050844;28;20769;-63
2021/09/17 05:34:12;;;;;;;31.33;26.37;;;15.50;99.90;;;;;;5051089;28;20448;-62
2021/09/17 05:36:39;;;;;;;33.33;28.80;;;15.50;99.90;;;;;;5051305;28;21013;-64
2021/09/17 05:39:07;;;;;;;35.50;28.20;;;15.50;99.90;;;;;;5051164;28;20436;-62
2021/09/17 05:41:34;;;;;;;33.03;29.33;;;15.60;99.90;;;;;;5050612;28;20496;-63
2021/09/17 05:44:01;;;;;;;32.57;26.87;;;15.60;99.90;;;;;;5051541;28;21008;-63
2021/09/17 05:46:27;;;;;;;31.43;27.23;;;15.60;99.90;;;;;;5053851;28;20464;-63
2021/09/17 05:48:54;;;;;;;28.83;25.50;;;15.60;99.90;;;;;;5054645;28;20836;-63
2021/09/17 05:51:21;;;;;;;30.00;26.80;;;15.60;99.90;;;;;;5054463;28;20466;-63
2021/09/17 05:53:47;;;;;;;32.33;25.27;;;15.70;99.90;;;;;;5054592;28;20800;-64
2021/09/17 05:56:15;;;;;;;32.20;25.67;;;15.70;99.90;;;;;;5054443;28;20471;-62
2021/09/17 05:58:42;;;;;;;32.77;25.40;;;15.70;99.90;;;;;;5054622;28;20448;-64
2021/09/17 06:01:09;;;;;;;31.90;24.97;;;15.80;99.90;;;;;;5054343;28;20519;-64
2021/09/17 06:03:35;;;;;;;31.40;25.27;;;15.80;99.90;;;;;;5054285;28;20487;-64
2021/09/17 06:06:02;;;;;;;30.10;24.70;;;15.80;99.90;;;;;;5054214;28;20798;-64
2021/09/17 06:08:29;;;;;;;26.67;23.63;;;15.90;99.90;;;;;;5054224;28;20942;-63
2021/09/17 06:10:55;;;;;;;31.23;24.83;;;16.00;99.90;;;;;;5054199;28;20447;-60
2021/09/17 06:13:23;;;;;;;27.90;24.17;;;16.00;99.90;;;;;;5054156;28;20440;-64
2021/09/17 06:15:50;;;;;;;32.30;28.87;;;16.00;99.90;;;;;;5053929;28;20783;-64
2021/09/17 06:18:17;;;;;;;27.20;24.30;;;16.10;99.90;;;;;;5054238;28;20809;-64
2021/09/17 06:20:43;;;;;;;28.97;23.33;;;16.10;99.90;;;;;;5054048;28;20452;-64
2021/09/17 06:23:10;;;;;;;25.93;23.13;;;16.20;99.90;;;;;;5053931;28;20483;-64
2021/09/17 06:25:37;;;;;;;26.77;24.00;;;16.30;99.90;;;;;;5054072;28;20471;-64
2021/09/17 06:28:05;;;;;;;33.30;24.97;;;16.40;99.90;;;;;;5053962;28;20817;-64
2021/09/17 06:30:33;;;;;;;29.20;23.93;;;16.40;99.90;;;;;;5053778;28;20443;-64
2021/09/17 06:33:00;;;;;;;28.07;22.23;;;16.40;99.90;;;;;;5053781;28;20455;-63
2021/09/17 06:35:26;;;;;;;31.93;22.80;;;16.50;99.90;;;;;;5053819;28;20468;-64
2021/09/17 06:37:55;;;;;;;26.00;23.40;;;16.60;99.90;;;;;;5053987;28;20926;-64
2021/09/17 06:40:24;;;;;;;28.47;24.77;;;16.70;99.90;;;;;;5053805;28;20530;-64
2021/09/17 06:42:51;;;;;;;29.97;23.10;;;16.70;99.90;;;;;;5053339;28;20440;-64
2021/09/17 06:45:18;;;;;;;29.90;25.13;;;16.70;99.90;;;;;;5053747;28;20468;-63
2021/09/17 06:47:47;;;;;;;28.90;23.87;;;16.80;99.90;;;;;;5053824;28;20447;-64
2021/09/17 06:50:15;;;;;;;30.73;22.97;;;16.80;99.90;;;;;;5053599;28;20440;-64
2021/09/17 06:52:47;;;;;;;27.27;24.30;;;16.80;99.90;;;;;;5053405;28;20447;-63
2021/09/17 06:55:14;;;;;;;27.43;24.70;;;16.80;99.90;;;;;;5053293;28;20468;-63
2021/09/17 06:57:46;;;;;;;26.20;23.50;;;16.80;99.90;;;;;;5053140;28;20496;-63
2021/09/17 07:00:14;;;;;;;27.23;22.83;;;16.90;99.90;;;;;;5053330;28;20451;-64
2021/09/17 07:02:41;;;;;;;29.77;23.67;;;17.00;99.90;;;;;;5053017;28;20821;-64
2021/09/17 07:05:10;;;;;;;26.07;23.47;;;17.10;99.90;;;;;;5053002;28;20488;-64
2021/09/17 07:07:37;;;;;;;26.50;23.90;;;17.20;99.90;;;;;;5053167;28;20448;-64
2021/09/17 07:10:04;;;;;;;28.70;24.30;;;17.30;99.90;;;;;;5053220;28;20444;-64
2021/09/17 07:12:31;;;;;;;27.53;24.60;;;17.30;99.90;;;;;;5052915;28;20948;-64
2021/09/17 07:14:58;;;;;;;26.40;23.90;;;17.40;99.90;;;;;;5052833;28;20480;-64
2021/09/17 07:17:24;;;;;;;30.77;24.60;;;17.50;99.90;;;;;;5053095;28;20833;-64
2021/09/17 07:19:51;;;;;;;28.90;25.80;;;17.60;99.90;;;;;;5053080;28;20639;-64
2021/09/17 07:22:20;;;;;;;27.80;23.40;;;17.60;99.90;;;;;;5052624;28;20467;-64
2021/09/17 07:24:47;;;;;;;28.23;23.80;;;17.60;99.90;;;;;;5052737;28;20479;-64
2021/09/17 07:27:14;;;;;;;31.50;25.67;;;17.70;99.90;;;;;;5052889;28;20451;-62
2021/09/17 07:29:41;;;;;;;28.37;25.40;;;17.70;99.90;;;;;;5052601;28;20471;-64
2021/09/17 07:32:08;;;;;;;26.63;23.80;;;17.70;99.90;;;;;;5052455;28;20451;-64
2021/09/17 07:34:35;;;;;;;27.00;24.10;;;17.80;99.90;;;;;;5052594;28;20807;-64
2021/09/17 07:37:02;;;;;;;27.60;24.83;;;17.70;99.90;;;;;;5052790;28;20445;-64
2021/09/17 07:39:30;;;;;;;28.57;25.30;;;17.80;99.90;;;;;;5052734;28;20452;-64
2021/09/17 07:41:57;;;;;;;27.07;24.37;;;17.90;99.90;;;;;;5052360;28;20801;-64
2021/09/17 07:44:24;;;;;;;27.33;24.53;;;17.90;99.90;;;;;;5052703;28;20476;-64
2021/09/17 07:46:51;;;;;;;26.13;23.40;;;17.90;99.90;;;;;;5052521;28;20463;-63
2021/09/17 07:49:17;;;;;;;28.20;25.47;;;17.90;99.90;;;;;;5052509;28;20980;-63
2021/09/17 07:51:44;;;;;;;26.83;24.10;;;18.00;99.90;;;;;;5052489;28;20515;-64
2021/09/17 07:54:11;;;;;;;24.43;21.77;;;18.10;99.90;;;;;;5052773;28;20443;-63
2021/09/17 07:56:40;;;;;;;24.07;21.90;;;18.10;99.90;;;;;;5052506;28;20460;-63
2021/09/17 07:59:06;;;;;;;25.13;22.83;;;18.10;99.90;;;;;;5052368;28;20538;-64
2021/09/17 08:01:33;;;;;;;23.83;21.53;;;18.20;99.90;;;;;;5052087;28;20796;-62
2021/09/17 08:04:00;;;;;;;25.30;22.73;;;18.30;99.90;;;;;;5052181;28;20545;-64
2021/09/17 08:06:26;;;;;;;26.80;24.37;;;18.40;99.90;;;;;;5052415;28;20468;-64
2021/09/17 08:08:53;;;;;;;29.00;26.13;;;18.40;99.90;;;;;;5051826;28;20459;-64
2021/09/17 08:11:20;;;;;;;25.30;23.20;;;18.50;99.90;;;;;;5052063;28;20448;-62
2021/09/17 08:13:48;;;;;;;26.43;24.13;;;18.50;99.90;;;;;;5052285;28;20436;-64
2021/09/17 08:16:14;;;;;;;26.40;24.00;;;18.60;99.90;;;;;;5052020;28;20654;-64
2021/09/17 08:18:44;;;;;;;26.00;23.60;;;18.70;99.90;;;;;;5052266;28;20538;-64
2021/09/17 08:21:11;;;;;;;24.93;23.03;;;18.70;99.90;;;;;;5052028;28;20484;-64
2021/09/17 08:23:38;;;;;;;27.60;25.33;;;18.90;99.90;;;;;;5051932;28;20484;-63
2021/09/17 08:26:06;;;;;;;26.37;23.90;;;19.00;99.90;;;;;;5052136;28;20471;-63
2021/09/17 08:28:33;;;;;;;27.13;24.93;;;19.20;99.90;;;;;;5052442;28;20443;-62
2021/09/17 08:31:03;;;;;;;26.27;23.67;;;19.30;99.90;;;;;;5051898;28;20440;-64
2021/09/17 08:33:30;;;;;;;26.80;24.70;;;19.40;99.90;;;;;;5052359;28;20547;-63
2021/09/17 08:35:57;;;;;;;30.10;27.50;;;19.50;99.90;;;;;;5052075;28;20498;-62
2021/09/17 08:38:23;;;;;;;28.50;26.00;;;19.50;99.90;;;;;;5051703;28;20471;-64
2021/09/17 08:40:52;;;;;;;29.73;27.13;;;19.50;99.90;;;;;;5051826;28;20451;-64
2021/09/17 08:43:19;;;;;;;28.10;25.70;;;19.50;99.90;;;;;;5051924;28;20791;-64
2021/09/17 08:45:46;;;;;;;28.37;25.47;;;19.60;99.90;;;;;;5051796;28;20460;-64
2021/09/17 08:48:15;;;;;;;27.03;24.60;;;19.70;99.90;;;;;;5051572;28;20436;-64
2021/09/17 08:50:43;;;;;;;26.80;24.47;;;19.80;99.90;;;;;;5051708;28;20444;-64
2021/09/17 08:53:09;;;;;;;26.70;24.80;;;19.90;99.90;;;;;;5051523;28;20818;-63
2021/09/17 08:55:36;;;;;;;26.87;24.30;;;19.90;99.90;;;;;;5051570;28;20522;-63
2021/09/17 08:58:03;;;;;;;28.27;26.10;;;19.90;99.90;;;;;;5051600;28;20447;-64
2021/09/17 09:00:44;;;;;;;26.50;24.40;;;19.90;99.90;;;;;;5051701;28;20444;-64
2021/09/17 09:03:12;;;;;;;28.37;26.07;;;20.00;99.90;;;;;;5051701;28;20447;-65
2021/09/17 09:05:41;;;;;;;30.10;27.27;;;19.90;99.90;;;;;;5051415;28;20483;-64
2021/09/17 09:08:08;;;;;;;29.07;26.83;;;20.20;99.90;;;;;;5051400;28;20690;-56
2021/09/17 09:10:35;;;;;;;30.23;27.67;;;20.60;99.90;;;;;;5051111;28;20443;-53
2021/09/17 09:13:05;;;;;;;29.43;27.03;;;20.70;99.90;;;;;;5050839;28;20475;-52
2021/09/17 09:15:33;;;;;;;28.97;26.77;;;21.00;99.90;;;;;;5050964;28;20472;-56
2021/09/17 09:18:01;;;;;;;30.27;27.90;;;21.10;99.90;;;;;;5051022;28;20486;-55
2021/09/17 09:20:29;;;;;;;29.70;27.33;;;21.50;99.90;;;;;;5052079;28;20867;-52
2021/09/17 09:23:16;;;;;;;31.70;29.10;;;21.90;99.90;;;;;;5054667;28;20444;-52
2021/09/17 09:25:55;;;;;;;30.47;28.27;;;22.40;99.90;;;;;;5054608;28;20483;-57
2021/09/17 09:28:23;;;;;;;32.63;30.33;;;22.70;99.90;;;;;;5054876;28;20439;-52
2021/09/17 09:30:51;;;;;;;31.83;29.47;;;23.00;99.90;;;;;;5054712;28;20440;-52
2021/09/17 09:33:37;;;;;;;31.10;28.83;;;22.90;99.90;;;;;;5054593;28;20975;-55
2021/09/17 09:36:06;;;;;;;32.53;29.67;;;22.80;99.90;;;;;;5054399;28;20460;-57
2021/09/17 09:38:43;;;;;;;31.27;28.70;;;22.50;99.90;;;;;;5054646;28;20436;-56
2021/09/17 09:41:13;;;;;;;33.07;30.50;;;22.70;99.90;;;;;;5054302;28;20454;-53
2021/09/17 09:43:42;;;;;;;36.70;33.80;;;22.70;99.90;;;;;;5054353;28;20446;-54
2021/09/17 09:46:26;;;;;;;32.97;30.53;;;23.20;99.90;;;;;;5054234;28;20471;-55
2021/09/17 09:49:05;;;;;;;32.37;30.17;;;23.40;99.90;;;;;;5054318;28;20447;-56
2021/09/17 09:51:34;;;;;;;31.90;29.63;;;23.70;99.90;;;;;;5054155;28;20478;-53
2021/09/17 09:54:04;;;;;;;32.97;30.50;;;24.10;99.90;;;;;;5054165;28;20441;-52
2021/09/17 09:56:31;;;;;;;34.00;31.80;;;24.10;99.90;;;;;;5054119;28;20460;-54
2021/09/17 09:59:02;;;;;;;34.37;31.63;;;24.10;99.90;;;;;;5054163;28;20444;-57
2021/09/17 10:01:30;;;;;;;34.90;32.10;;;24.10;99.90;;;;;;5053955;28;20476;-54
2021/09/17 10:03:57;;;;;;;34.30;31.80;;;23.90;99.90;;;;;;5053948;28;20444;-55
2021/09/17 10:06:25;;;;;;;34.27;31.57;;;23.60;99.90;;;;;;5053924;28;20970;-52
2021/09/17 10:08:53;;;;;;;33.20;30.77;;;23.70;99.90;;;;;;5054051;28;20535;-56
2021/09/17 10:11:22;;;;;;;33.53;30.87;;;23.70;99.90;;;;;;5053802;28;20454;-56
2021/09/17 10:13:49;;;;;;;33.80;31.40;;;23.50;99.90;;;;;;5053805;28;20444;-60
2021/09/17 10:16:18;;;;;;;34.93;32.53;;;23.10;99.90;;;;;;5054306;28;20483;-59
2021/09/17 10:18:45;;;;;;;35.17;32.40;;;22.90;99.90;;;;;;5053741;28;20713;-58
2021/09/17 10:21:13;;;;;;;33.93;31.40;;;23.00;99.90;;;;;;5053487;28;20514;-59
2021/09/17 10:23:44;;;;;;;31.90;29.60;;;23.30;99.90;;;;;;5053670;28;20444;-59
2021/09/17 10:26:15;;;;;;;32.67;30.27;;;23.50;99.90;;;;;;5053542;28;20483;-57
2021/09/17 10:29:05;;;;;;;32.77;30.50;;;23.70;99.90;;;;;;5053627;28;20644;-59
2021/09/17 10:31:42;;;;;;;30.87;28.57;;;23.60;99.90;;;;;;5053036;28;20504;-59
2021/09/17 10:34:36;;;;;;;32.17;29.70;;;24.00;99.90;;;;;;5053492;28;20470;-56
2021/09/17 10:37:04;;;;;;;29.10;27.00;;;24.60;99.90;;;;;;5053482;28;20451;-57
2021/09/17 10:39:31;;;;;;;31.77;29.57;;;25.00;99.90;;;;;;5053445;28;20452;-60
2021/09/17 10:42:12;;;;;;;30.10;28.40;;;25.40;99.00;;;;;;5053164;28;20444;-57
2021/09/17 10:45:20;;;;;;;30.53;28.70;;;25.90;96.80;;;;;;5053221;28;20472;-58
2021/09/17 10:48:11;;;;;;;31.37;29.50;;;25.70;96.00;;;;;;5053362;28;20451;-59
2021/09/17 10:50:57;;;;;;;32.70;30.70;;;26.20;94.30;;;;;;5033676;28;20463;-57
2021/09/17 10:53:54;;;;;;;30.53;28.70;;;26.50;93.00;;;;;;5053143;28;20440;-55
2021/09/17 10:56:21;;;;;;;31.13;29.00;;;27.10;91.60;;;;;;4972026;28;20491;-57
2021/09/17 10:59:11;;;;;;;34.53;32.13;;;27.10;89.20;;;;;;5034329;28;20483;-54
2021/09/17 11:01:53;;;;;;;31.53;29.67;;;27.60;87.20;;;;;;5052854;28;20444;-57
2021/09/17 11:04:22;;;;;;;32.60;30.60;;;27.60;85.20;;;;;;5052807;28;20571;-56
2021/09/17 11:06:49;;;;;;;33.30;31.30;;;27.60;83.80;;;;;;5052828;28;20471;-56
2021/09/17 11:09:35;;;;;;;30.47;28.70;;;28.30;81.60;;;;;;5052868;28;20451;-58
2021/09/17 11:12:14;;;;;;;31.90;30.00;;;29.00;78.20;;;;;;5052501;28;20451;-58
2021/09/17 11:14:42;;;;;;;33.67;31.37;;;29.70;75.60;;;;;;5052555;28;20435;-56
2021/09/17 11:17:09;;;;;;;34.33;32.27;;;30.70;68.70;;;;;;5052623;28;20940;-57
2021/09/17 11:19:35;;;;;;;33.10;31.10;;;32.00;61.00;;;;;;5052634;28;20439;-61
2021/09/17 11:22:04;;;;;;;32.43;30.53;;;32.70;56.70;;;;;;5052249;28;20443;-59
2021/09/17 11:24:34;;;;;;;34.80;32.90;;;32.40;55.70;;;;;;5052379;28;20476;-60
2021/09/17 11:27:01;;;;;;;34.83;32.90;;;31.50;55.70;;;;;;5052548;28;20454;-58
2021/09/17 11:29:28;;;;;;;36.67;34.57;;;31.40;55.50;;;;;;5052561;28;20543;-55
2021/09/17 11:31:59;;;;;;;37.37;35.20;;;31.00;55.70;;;;;;5052144;28;20938;-58
2021/09/17 11:34:28;;;;;;;37.50;35.20;;;30.30;56.70;;;;;;5052462;28;20447;-55
2021/09/17 11:36:57;;;;;;;36.67;34.27;;;30.20;57.30;;;;;;5052297;28;20521;-56
2021/09/17 11:39:26;;;;;;;34.90;32.50;;;30.00;57.90;;;;;;5052342;28;20524;-58
2021/09/17 11:41:56;;;;;;;36.83;34.43;;;29.40;59.20;;;;;;5052054;28;20444;-58
2021/09/17 11:44:34;;;;;;;34.80;32.80;;;29.10;61.70;;;;;;5051392;28;20451;-58
2021/09/17 11:47:03;;;;;;;37.83;35.20;;;29.90;60.00;;;;;;5052051;28;20933;-62
2021/09/17 11:49:32;;;;;;;36.77;34.60;;;29.40;59.40;;;;;;5052049;28;20952;-52
2021/09/17 11:52:01;;;;;;;37.53;34.70;;;28.80;60.70;;;;;;5051667;28;20444;-53
2021/09/17 11:54:28;;;;;;;37.30;34.90;;;27.80;63.30;;;;;;5051992;28;20444;-51
2021/09/17 11:57:03;;;;;;;35.73;33.10;;;27.30;65.60;;;;;;5051966;28;20467;-62
2021/09/17 11:59:34;;;;;;;34.60;32.40;;;26.80;69.00;;;;;;5051719;28;20447;-58
2021/09/17 12:02:18;;;;;;;37.37;34.97;;;26.10;72.60;;;;;;5051459;28;20447;-58
2021/09/17 12:04:48;;;;;;;36.23;33.50;;;25.40;78.10;;;;;;5052001;28;20984;-59
2021/09/17 12:07:15;;;;;;;36.60;34.20;;;25.20;81.60;;;;;;5051945;28;20452;-60
2021/09/17 12:09:43;;;;;;;35.47;32.97;;;24.90;84.70;;;;;;5051653;28;20440;-59
2021/09/17 12:12:10;;;;;;;35.93;33.53;;;24.80;89.00;;;;;;5051515;28;20479;-59
2021/09/17 12:14:38;;;;;;;35.63;33.43;;;24.80;90.30;;;;;;5051465;28;20451;-59
2021/09/17 12:17:06;;;;;;;36.70;34.07;;;24.90;90.90;;;;;;5052003;28;20523;-63
2021/09/17 12:20:00;;;;;;;35.13;32.90;;;24.90;91.00;;;;;;5052273;28;20444;-57
2021/09/17 12:22:38;;;;;;;34.67;32.37;;;24.90;92.30;;;;;;5051651;28;20453;-53
2021/09/17 12:25:11;;;;;;;36.83;34.60;;;25.20;91.80;;;;;;5051459;28;20498;-60
2021/09/17 12:27:40;;;;;;;34.83;32.23;;;25.60;91.10;;;;;;5051958;28;20937;-63
2021/09/17 12:30:09;;;;;;;33.80;31.60;;;25.90;89.30;;;;;;5051731;28;20456;-57
2021/09/17 12:32:36;;;;;;;36.10;33.90;;;26.00;86.70;;;;;;5051247;28;20824;-61
2021/09/17 12:35:13;;;;;;;34.60;32.40;;;26.10;86.30;;;;;;5051518;28;20462;-61